Nearby METAR Reports

 

KTEB - Teterboro, New Jersey, USA
Distance from station: ENE 2mi, 4km
Updated: 04/07/2020 1:51am
Clear
Clear
 Wind from WNW
Wind: WNW 7 mph , 11 km/h
Temperature: 52°F , 11°C
Dew Point: 21°F , -6°C
Humidity: 30%
Barometer: 29.97 inHg , 1014.9 hPa
Clouds: Clear
Visibility: 10 miles , 16 km
2020/04/07 05:51 KTEB 070551Z 30006KT 10SM CLR 11/M06 A2997 RMK AO2 SLP147 T01111056 10156 20100 53002
KNYC - Nyc/Central Park, New York, USA
Distance from station: SE 8mi, 13km
Updated: 04/07/2020 1:51am

 
Visibility: 2 miles , 3 km
2020/04/07 05:51 KNYC 070551Z AUTO 28003KT÷™
 
KCDW - Caldwell, New Jersey, USA
Distance from station: WNW 10mi, 17km
Updated: 04/07/2020 1:53am
Few Clouds
Few Clouds
 Wind from calm
Wind: Calm
Temperature: 50°F , 10°C
Dew Point: 21°F , -6°C
Humidity: 32%
Barometer: 29.99 inHg , 1015.6 hPa
Clouds: Few Clouds
Visibility: 10 miles , 16 km
Cloud details: Few Clouds 11000 ft
2020/04/07 05:53 KCDW 070553Z AUTO 00000KT 10SM FEW110 10/M06 A2999 RMK AO2 SLP161 T01001056 10167 20094 51005
KLGA - Nyc/La Guardia, New York, USA
Distance from station: ESE 12mi, 19km
Updated: 04/07/2020 1:51am
Mostly cloudy
Mostly cloudy
 Wind from NW
Wind: NW 7 mph , 11 km/h
Temperature: 55°F , 13°C
Dew Point: 25°F , -4°C
Humidity: 31%
Barometer: 29.97 inHg , 1014.9 hPa
Clouds: Mostly cloudy
Visibility: 10 miles , 16 km
Cloud details: Mostly cloudy 15000 ft
2020/04/07 05:51 KLGA 070551Z 31006KT 10SM BKN150 13/M04 A2997 RMK AO2 SLP147 T01281044 10161 20128 50002
 
KEWR - Newark, New Jersey, USA
Distance from station: SSW 12mi, 20km
Updated: 04/07/2020 1:51am
Mostly cloudy
Mostly cloudy
 Wind from NNW
Wind: NNW 9 mph , 15 km/h
Temperature: 55°F , 13°C
Dew Point: 14°F , -10°C
Humidity: 19%
Barometer: 29.98 inHg , 1015.2 hPa
Clouds: Mostly cloudy
Visibility: 10 miles , 16 km
Cloud details: Mostly cloudy 14000 ft
Mostly cloudy 22000 ft
Mostly cloudy 25000 ft
2020/04/07 05:51 KEWR 070551Z 33008KT 10SM BKN140 BKN220 BKN250 13/M10 A2998 RMK AO2 SLP151 T01331100 10167 20128 51003
KMMU - Morristown Muni, New Jersey, USA
Distance from station: WSW 18mi, 29km
Updated: 04/07/2020 1:55am
Partly cloudy
Partly cloudy
 Wind from NW
Wind: NW 3 mph , 6 km/h
Temperature: 48°F , 9°C
Dew Point: 23°F , -5°C
Humidity: 37%
Barometer: 29.99 inHg , 1015.6 hPa
Clouds: Partly cloudy
Visibility: 10 miles , 16 km
Cloud details: Partly cloudy 12000 ft
2020/04/07 05:55 KMMU 070555Z AUTO 31003KT 10SM SCT120 09/M05 A2999 RMK AO2
 
KJFK - Nyc/Jfk Arpt, New York, USA
Distance from station: SE 23mi, 36km
Updated: 04/07/2020 1:51am
Mostly cloudy
Mostly cloudy
 Wind from NW
Wind: NW 9 mph , 15 km/h
Temperature: 55°F , 13°C
Dew Point: 23°F , -5°C
Humidity: 28%
Barometer: 29.98 inHg , 1015.2 hPa
Clouds: Mostly cloudy
Visibility: 10 miles , 16 km
Cloud details: Mostly cloudy 15000 ft
2020/04/07 05:51 KJFK 070551Z 32008KT 10SM BKN150 13/M05 A2998 RMK AO2 SLP152 T01281050 10128 20078 53003
KHPN - White Plains, New York, USA
Distance from station: NE 25mi, 40km
Updated: 04/07/2020 1:56am
Clear
Clear
 Wind from NW
Wind: NW 10 mph , 17 km/h
Temperature: 52°F , 11°C
Dew Point: 18°F , -8°C
Humidity: 26%
Barometer: 29.95 inHg , 1014.2 hPa
Clouds: Clear
Visibility: 10 miles , 16 km
2020/04/07 05:56 KHPN 070556Z 32009KT 10SM CLR 11/M08 A2995 RMK AO2 SLP143 T01061078 10144 20100 50000
 
KSMQ - Somerville, New Jersey, USA
Distance from station: WSW 34mi, 55km
Updated: 04/07/2020 1:53am
Clear
Clear
 Wind from calm
Wind: Calm
Temperature: 37°F , 3°C
Dew Point: 32°F , 0°C
Humidity: 81%
Barometer: 29.98 inHg , 1015.2 hPa
Clouds: Clear
Visibility: 10 miles , 16 km
2020/04/07 05:53 KSMQ 070553Z AUTO 00000KT 10SM CLR 03/00 A2998 RMK AO2 SLP152 T00280000 10156 20028 51004
K12N - Andover, New Jersey, USA
Distance from station: WNW 36mi, 57km
Updated: 04/07/2020 1:54am

 Wind from calm
Wind: Calm
Temperature: 39°F , 4°C
Dew Point: 30°F , -1°C
Humidity: 70%
Barometer: 30.00 inHg , 1015.9 hPa
2020/04/07 05:54 K12N 070554Z AUTO 00000KT 04/M01 A3000 RMK AO1 SLP160 T00391006 10144 20039 51005
 
KFRG - Farmingdale, New York, USA
Distance from station: ESE 36mi, 58km
Updated: 04/07/2020 1:53am
Few Clouds
Few Clouds
 Wind from W
Wind: W 3 mph , 6 km/h
Temperature: 48°F , 9°C
Dew Point: 39°F , 4°C
Humidity: 71%
Barometer: 29.97 inHg , 1014.9 hPa
Clouds: Few Clouds
Visibility: 10 miles , 16 km
Cloud details: Few Clouds 12000 ft
2020/04/07 05:53 KFRG 070553Z AUTO 28003KT 10SM FEW120 09/04 A2997 RMK AO2 SLP147 T00940039 10106 20089 50000
KFWN - Sussex, New Jersey, USA
Distance from station: NW 37mi, 60km
Updated: 04/07/2020 1:53am
Overcast
Overcast
 Wind from calm
Wind: Calm
Temperature: 41°F , 5°C
Dew Point: 28°F , -2°C
Humidity: 61%
Barometer: 29.99 inHg , 1015.6 hPa
Clouds: Overcast
Visibility: 10 miles , 16 km
Cloud details: Overcast 12000 ft
2020/04/07 05:53 KFWN 070553Z AUTO 00000KT 10SM OVC120 05/M02 A2999 RMK AO2 SLP158 T00501022 10144 20044 51002
 
KSWF - Newburgh/Stewart, New York, USA
Distance from station: 0 45mi, 72km
Updated: 04/07/2020 1:45am
Clear
Clear
 Wind from WNW
Wind: WNW 7 mph , 11 km/h
Temperature: 48°F , 9°C
Wind Chill: 45°F , 7°C
Dew Point: 25°F , -4°C
Humidity: 40%
Barometer: 29.97 inHg , 1014.9 hPa
Clouds: Clear
Visibility: 10 miles , 16 km
2020/04/07 05:45 KSWF 070545Z 29006KT 10SM SKC 09/M04 A2997
KMGJ - Montgomery, New York, USA
Distance from station: NNW 47mi, 75km
Updated: 04/07/2020 1:54am
Overcast
Overcast
 Wind from varies
Wind: varies 3 mph , 6 km/h
Temperature: 39°F , 4°C
Dew Point: 32°F , 0°C
Humidity: 75%
Barometer: 29.98 inHg , 1015.2 hPa
Clouds: Overcast
Visibility: 10 miles , 16 km
Cloud details: Overcast 11000 ft
2020/04/07 05:54 KMGJ 070554Z AUTO VRB03KT 10SM OVC110 04/00 A2998 RMK AO2 SLP151 T00440000 10133 20028 53003
 
KBLM - Belmar/Farmdale, New Jersey, USA
Distance from station: S 47mi, 76km
Updated: 04/07/2020 1:56am
Clear
Clear
 Wind from WNW
Wind: WNW 5 mph , 7 km/h
Temperature: 43°F , 6°C
Wind Chill: 40°F , 4°C
Dew Point: 39°F , 4°C
Humidity: 87%
Barometer: 29.99 inHg , 1015.6 hPa
Clouds: Clear
Visibility: 10 miles , 16 km
2020/04/07 05:56 KBLM 070556Z AUTO 29004KT 10SM CLR 06/04 A2999 RMK AO2 SLP157 T00610044 10106 20061 58002
KDXR - Danbury, Connecticut, USA
Distance from station: NE 47mi, 76km
Updated: 04/07/2020 1:53am
Few Clouds
Few Clouds
 Wind from SSW
Wind: SSW 3 mph , 6 km/h
Temperature: 37°F , 3°C
Dew Point: 30°F , -1°C
Humidity: 75%
Barometer: 29.97 inHg , 1014.9 hPa
Clouds: Few Clouds
Visibility: 10 miles , 16 km
Cloud details: Few Clouds 12000 ft
2020/04/07 05:53 KDXR 070553Z AUTO 21003KT 10SM FEW120 03/M01 A2997 RMK AO2 SLP149 T00331006 10122 20022 50000
 
KISP - Islip, New York, USA
Distance from station: E 52mi, 83km
Updated: 04/07/2020 1:56am
Mostly cloudy
Mostly cloudy
 Wind from calm
Wind: Calm
Temperature: 46°F , 8°C
Dew Point: 41°F , 5°C
Humidity: 82%
Barometer: 29.95 inHg , 1014.2 hPa
Clouds: Mostly cloudy
Visibility: 10 miles , 16 km
Cloud details: Mostly cloudy 12000 ft
2020/04/07 05:56 KISP 070556Z AUTO 00000KT 10SM BKN120 08/05 A2995 RMK AO2 SLP143 T00780050 10094 20072 50000
KBDR - Bridgeport, Connecticut, USA
Distance from station: ENE 54mi, 87km
Updated: 04/07/2020 1:52am
Clear
Clear
 Wind from NNW
Wind: NNW 5 mph , 7 km/h
Temperature: 52°F , 11°C
Dew Point: 21°F , -6°C
Humidity: 30%
Barometer: 29.95 inHg , 1014.2 hPa
Clouds: Clear
Visibility: 10 miles , 16 km
2020/04/07 05:52 KBDR 070552Z AUTO 34004KT 10SM CLR 11/M06 A2995 RMK AO2 SLP143 T01061056 10128 20089 50001 $
 
KTTN - Trenton, New Jersey, USA
Distance from station: SW 55mi, 88km
Updated: 04/07/2020 1:53am
Clear
Clear
 Wind from calm
Wind: Calm
Temperature: 45°F , 7°C
Dew Point: 30°F , -1°C
Humidity: 57%
Barometer: 29.98 inHg , 1015.2 hPa
Clouds: Clear
Visibility: 10 miles , 16 km
2020/04/07 05:53 KTTN 070553Z AUTO 00000KT 10SM CLR 07/M01 A2998 RMK AO2 SLP146 T00671011 10150 20067 54000
KPOU - Poughkeepsie, New York, USA
Distance from station: N 55mi, 89km
Updated: 04/07/2020 1:53am
Mostly cloudy
Mostly cloudy
 Wind from NNE
Wind: NNE 5 mph , 7 km/h
Temperature: 48°F , 9°C
Wind Chill: 46°F , 8°C
Dew Point: 27°F , -3°C
Humidity: 43%
Barometer: 29.96 inHg , 1014.6 hPa
Clouds: Mostly cloudy
Visibility: 10 miles , 16 km
Cloud details: Mostly cloudy 9500 ft
2020/04/07 05:53 KPOU 070553Z 03004KT 10SM BKN095 09/M03 A2996 RMK AO2 SLP142 T00941033 10144 20056 50002
 
KNEL - Lakehurst Nas, New Jersey, USA
Distance from station: SSW 59mi, 95km
Updated: 04/07/2020 2:00am
Clear
Clear
 Wind from calm
Wind: Calm
Temperature: 36°F , 2°C
Dew Point: 34°F , 1°C
Humidity: 93%
Barometer: 29.98 inHg , 1015.2 hPa
Clouds: Clear
Visibility: 10 miles , 16 km
2020/04/07 06:00 KNEL 070600Z AUTO 00000KT 10SM CLR 02/01 A2998 RMK AO2 SLP150 T00220006 10111 20017 58001 $
KWRI - Wrightst/Mcguire, New Jersey, USA
Distance from station: SSW 63mi, 102km
Updated: 04/07/2020 1:56am
Mostly cloudy
Mostly cloudy
 Wind from calm
Wind: Calm
Temperature: 39°F , 4°C
Dew Point: 37°F , 3°C
Humidity: 93%
Barometer: 29.98 inHg , 1015.2 hPa
Clouds: Mostly cloudy
Visibility: 10 miles , 16 km
Cloud details: Mostly cloudy 13000 ft
2020/04/07 05:56 KWRI 070556Z AUTO 00000KT 10SM BKN130 04/03 A2998 RMK AO2 SLP152 T00420029 10147 20039 57004 $
 
KHWV - Shirley, New York, USA
Distance from station: E 64mi, 103km
Updated: 04/07/2020 1:56am
Mostly cloudy
Mostly cloudy
 Wind from calm
Wind: Calm
Temperature: 46°F , 8°C
Dew Point: 39°F , 4°C
Humidity: 76%
Barometer: 29.96 inHg , 1014.6 hPa
Clouds: Mostly cloudy
Visibility: 10 miles , 16 km
Cloud details: Mostly cloudy 12000 ft
2020/04/07 05:56 KHWV 070556Z AUTO 00000KT 10SM BKN120 08/04 A2996 RMK AO2 SLP146 T00830039 10106 20072 50002 TSNO
KMJX - Toms River, New Jersey, USA
Distance from station: S 64mi, 104km
Updated: 04/07/2020 1:56am
Clear
Clear
 Wind from calm
Wind: Calm
Temperature: 37°F , 3°C
Dew Point: 36°F , 2°C
Humidity: 93%
Barometer: 29.99 inHg , 1015.6 hPa
Clouds: Clear
Visibility: 10 miles , 16 km
2020/04/07 05:56 KMJX 070556Z AUTO 00000KT 10SM CLR 03/02 A2999 RMK AO2 SLP159 T00280017 10094 20017 58006
 
KDYL - Doylestown, Pennsylvania, USA
Distance from station: SW 65mi, 104km
Updated: 04/07/2020 1:54am
Mostly cloudy
Mostly cloudy
 Wind from calm
Wind: Calm
Temperature: 45°F , 7°C
Dew Point: 25°F , -4°C
Humidity: 46%
Barometer: 29.98 inHg , 1015.2 hPa
Clouds: Mostly cloudy
Visibility: 10 miles , 16 km
Cloud details: Mostly cloudy 10000 ft
2020/04/07 05:54 KDYL 070554Z AUTO 00000KT 10SM BKN100 07/M04 A2998 RMK AO2 SLP153 T00721039 10156 20072 53000
KOXC - Oxford/Waterbury, Connecticut, USA
Distance from station: NE 65mi, 105km
Updated: 04/07/2020 1:51am
Mostly cloudy
Mostly cloudy
 Wind from NNW
Wind: NNW 9 mph , 15 km/h
Temperature: 46°F , 8°C
Wind Chill: 41°F , 5°C
Dew Point: 19°F , -7°C
Humidity: 34%
Barometer: 29.96 inHg , 1014.6 hPa
Clouds: Mostly cloudy
Visibility: 10 miles , 16 km
Cloud details: Mostly cloudy 10000 ft
2020/04/07 05:51 KOXC 070551Z AUTO 33008KT 10SM BKN100 08/M07 A2996 RMK AO2 SLP159 T00831072 10133 20056 50001
 
KMSV - Monticello, New York, USA
Distance from station: NNW 69mi, 111km
Updated: 04/07/2020 1:56am
Partly cloudy
Partly cloudy
 Wind from NW
Wind: NW 10 mph , 17 km/h
Temperature: 43°F , 6°C
Wind Chill: 37°F , 3°C
Dew Point: 25°F , -4°C
Humidity: 49%
Barometer: 29.98 inHg , 1015.2 hPa
Clouds: Partly cloudy
Visibility: 10 miles , 16 km
Cloud details: Partly cloudy 8500 ft
2020/04/07 05:56 KMSV 070556Z AUTO 32009KT 10SM SCT085 06/M04 A2998 RMK AO2 SLP155 T00611039 10106 20056 58002
KHVN - New Haven/Tweed, Connecticut, USA
Distance from station: ENE 70mi, 112km
Updated: 04/07/2020 1:53am
Clear
Clear
 Wind from NW
Wind: NW 5 mph , 7 km/h
Temperature: 54°F , 12°C
Dew Point: 19°F , -7°C
Humidity: 26%
Barometer: 29.95 inHg , 1014.2 hPa
Clouds: Clear
Visibility: 10 miles , 16 km
2020/04/07 05:53 KHVN 070553Z AUTO 32004KT 10SM CLR 12/M07 A2995 RMK AO2 SLP142 T01171067 10161 20100 50002
 
KMPO - Mt. Pocono, Pennsylvania, USA
Distance from station: WNW 70mi, 113km
Updated: 04/07/2020 1:53am
Partly cloudy
Partly cloudy
 Wind from W
Wind: W 3 mph , 6 km/h
Temperature: 36°F , 2°C
Dew Point: 25°F , -4°C
Humidity: 65%
Barometer: 29.98 inHg , 1015.2 hPa
Clouds: Partly cloudy
Visibility: 10 miles , 16 km
Cloud details: Partly cloudy 10000 ft
2020/04/07 05:53 KMPO 070553Z AUTO 27003KT 10SM SCT100 02/M04 A2998 RMK AO2 SLP160 T00171039 10094 20000 58001
KPNE - Philadelphia/Ne, Pennsylvania, USA
Distance from station: SW 72mi, 116km
Updated: 04/07/2020 1:54am
Mostly cloudy
Mostly cloudy
 Wind from calm
Wind: Calm
Temperature: 46°F , 8°C
Dew Point: 34°F , 1°C
Humidity: 62%
Barometer: 30.00 inHg , 1015.9 hPa
Clouds: Mostly cloudy
Visibility: 10 miles , 16 km
Cloud details: Mostly cloudy 11000 ft
2020/04/07 05:54 KPNE 070554Z AUTO 00000KT 10SM BKN110 08/01 A3000 RMK AO2 SLP159 T00830011 10172 20078 55000
 
KABE - Allentown, Pennsylvania, USA
Distance from station: W 73mi, 117km
Updated: 04/07/2020 1:51am
Partly cloudy
Partly cloudy
 Wind from calm
Wind: Calm
Temperature: 43°F , 6°C
Dew Point: 30°F , -1°C
Humidity: 61%
Barometer: 30.00 inHg , 1015.9 hPa
Clouds: Partly cloudy
Visibility: 9 miles , 14 km
Cloud details: Partly cloudy 10000 ft
2020/04/07 05:51 KABE 070551Z 00000KT 9SM SCT100 06/M01 A3000 RMK AO2 SLP158 T00611006 10144 20050 53003
KUKT - Quakertown Arp, Pennsylvania, USA
Distance from station: WSW 74mi, 119km
Updated: 04/07/2020 1:55am
Overcast
Overcast
 Wind from calm
Wind: Calm
Temperature: 39°F , 4°C
Dew Point: 36°F , 2°C
Humidity: 87%
Barometer: 30.00 inHg , 1015.9 hPa
Clouds: Overcast
Visibility: 10 miles , 16 km
Cloud details: Overcast 9500 ft
2020/04/07 05:55 KUKT 070555Z AUTO 00000KT 10SM OVC095 04/02 A3000 RMK A01
 
KVAY - Mount Holly, New Jersey, USA
Distance from station: SSW 75mi, 120km
Updated: 04/07/2020 1:54am

 Wind from calm
Wind: Calm
Temperature: 43°F , 6°C
Dew Point: 37°F , 3°C
Humidity: 81%
Barometer: 29.99 inHg , 1015.6 hPa
Visibility: 10 miles , 16 km
2020/04/07 05:54 KVAY 070554Z AUTO 00000KT 10SM 06/03 A2999 RMK AO2 SLP155 T00560028 10150 20050 56003 $
KXLL - Allentown Queen, Pennsylvania, USA
Distance from station: WSW 76mi, 122km
Updated: 04/07/2020 1:55am
Mostly cloudy
Mostly cloudy
 Wind from calm
Wind: Calm
Temperature: 43°F , 6°C
Dew Point: 32°F , 0°C
Humidity: 66%
Barometer: 30.01 inHg , 1016.3 hPa
Clouds: Mostly cloudy
Visibility: 10 miles , 16 km
Cloud details: Mostly cloudy 10000 ft
2020/04/07 05:55 KXLL 070555Z AUTO 00000KT 10SM BKN100 06/00 A3001 RMK AO2
 
KFOK - Westhampton Beac, New York, USA
Distance from station: E 77mi, 124km
Updated: 04/07/2020 1:53am
Partly cloudy
Partly cloudy
 Wind from calm
Wind: Calm
Temperature: 39°F , 4°C
Dew Point: 36°F , 2°C
Humidity: 87%
Barometer: 29.97 inHg , 1014.9 hPa
Clouds: Partly cloudy
Visibility: 10 miles , 16 km
Cloud details: Partly cloudy 12000 ft
2020/04/07 05:53 KFOK 070553Z AUTO 00000KT 10SM SCT120 04/02 A2997 RMK AO2 SLP150 T00390017 10083 20033 50003
KLOM - Philly Wings F, Pennsylvania, USA
Distance from station: SW 79mi, 128km
Updated: 04/07/2020 1:55am
Mostly cloudy
Mostly cloudy
 Wind from calm
Wind: Calm
Temperature: 45°F , 7°C
Dew Point: 34°F , 1°C
Humidity: 66%
Barometer: 29.99 inHg , 1015.6 hPa
Clouds: Mostly cloudy
Visibility: 10 miles , 16 km
Cloud details: Mostly cloudy 11000 ft
2020/04/07 05:55 KLOM 070555Z AUTO 00000KT 10SM BKN110 07/01 A2999 RMK AO2 T00650009 10119 20044
 
KMMK - Meriden, Connecticut, USA
Distance from station: NE 80mi, 128km
Updated: 04/07/2020 1:53am
Clear
Clear
 Wind from calm
Wind: Calm
Temperature: 41°F , 5°C
Dew Point: 27°F , -3°C
Humidity: 57%
Barometer: 29.95 inHg , 1014.2 hPa
Clouds: Clear
Visibility: 10 miles , 16 km
2020/04/07 05:53 KMMK 070553Z AUTO 00000KT 10SM CLR 05/M03 A2995 RMK AO2 SLP142 T00501028 10117 20039 50002
KPTW - Pottstown, Pennsylvania, USA
Distance from station: WSW 88mi, 141km
Updated: 04/07/2020 1:54am
Few Clouds
Few Clouds
 Wind from calm
Wind: Calm
Temperature: 41°F , 5°C
Dew Point: 30°F , -1°C
Humidity: 66%
Barometer: 30.01 inHg , 1016.3 hPa
Clouds: Few Clouds
Visibility: 10 miles , 16 km
Cloud details: Few Clouds 11000 ft
2020/04/07 05:54 KPTW 070554Z AUTO 00000KT 10SM FEW110 05/M01 A3001 RMK AO2 SLP160 T00501011 10122 20044 53001
 
KSNC - Chester, Connecticut, USA
Distance from station: ENE 90mi, 146km
Updated: 04/07/2020 1:55am
Mostly cloudy
Mostly cloudy
 Wind from N
Wind: N 8 mph , 13 km/h
Temperature: 50°F , 10°C
Wind Chill: 47°F , 8°C
Dew Point: 16°F , -9°C
Humidity: 25%
Barometer: 29.94 inHg , 1013.9 hPa
Clouds: Mostly cloudy
Visibility: 10 miles , 16 km
Cloud details: Mostly cloudy 12000 ft
2020/04/07 05:55 KSNC 070555Z AUTO 35007KT 10SM BKN120 10/M09 A2994 RMK AO2
KPHL - Philadelphia, Pennsylvania, USA
Distance from station: SW 91mi, 146km
Updated: 04/07/2020 1:54am
Mostly cloudy
Mostly cloudy
 Wind from SW
Wind: SW 5 mph , 7 km/h
Temperature: 48°F , 9°C
Wind Chill: 46°F , 8°C
Dew Point: 36°F , 2°C
Humidity: 62%
Barometer: 30.00 inHg , 1015.9 hPa
Clouds: Mostly cloudy
Visibility: 10 miles , 16 km
Cloud details: Partly cloudy 14000 ft
Mostly cloudy 25000 ft
2020/04/07 05:54 KPHL 070554Z 22004KT 10SM SCT140 BKN250 09/02 A3000 RMK AO2 SLP159 T00940022 10178 20083 53003
 
KAVP - Avoca/Wilkes B., Pennsylvania, USA
Distance from station: WNW 91mi, 147km
Updated: 04/07/2020 1:54am
Overcast
Overcast
 Wind from calm
Wind: Calm
Temperature: 45°F , 7°C
Dew Point: 27°F , -3°C
Humidity: 49%
Barometer: 29.99 inHg , 1015.6 hPa
Clouds: Overcast
Visibility: 10 miles , 16 km
Cloud details: Overcast 11000 ft
2020/04/07 05:54 KAVP 070554Z 00000KT 10SM OVC110 07/M03 A2999 RMK AO2 SLP156 T00721033 10133 20056 57002
KHFD - Hartford/Brainar, Connecticut, USA
Distance from station: NE 96mi, 155km
Updated: 04/07/2020 1:53am
Partly cloudy
Partly cloudy
 Wind from WNW
Wind: WNW 7 mph , 11 km/h
Temperature: 52°F , 11°C
Dew Point: 18°F , -8°C
Humidity: 26%
Barometer: 29.95 inHg , 1014.2 hPa
Clouds: Partly cloudy
Visibility: 10 miles , 16 km
Cloud details: Partly cloudy 12000 ft
2020/04/07 05:53 KHFD 070553Z AUTO 30006KT 10SM SCT120 11/M08 A2995 RMK AO2 SLP141 T01111083 10150 20100 50002
 
KHTO - East Hampton, New York, USA
Distance from station: E 96mi, 155km
Updated: 04/07/2020 1:55am
Clear
Clear
 Wind from calm
Wind: Calm
Temperature: 39°F , 4°C
Dew Point: 36°F , 2°C
Humidity: 87%
Barometer: 29.95 inHg , 1014.2 hPa
Clouds: Clear
Visibility: 10 miles , 16 km
2020/04/07 05:55 KHTO 070555Z AUTO 00000KT 10SM CLR 04/02 A2995 RMK AO2 T00440018 10081 20041
KACY - Atlantic City, New Jersey, USA
Distance from station: SSW 99mi, 160km
Updated: 04/07/2020 12:54am
NOT Current
Clear
Clear
 Wind from calm
Wind: Calm
Temperature: 39°F , 4°C
Dew Point: 36°F , 2°C
Humidity: 87%
Barometer: 29.99 inHg , 1015.6 hPa
Clouds: Clear
Visibility: 10 miles , 16 km
2020/04/07 04:54 KACY 070454Z 00000KT 10SM CLR 04/02 A2999 RMK AO2 SLP154 T00440017 401890044 $